Weather at Belozem SSA Airstrip

Public forecast

Using degrees Celsius for public forecast. Weather courtesy of forecast.io.

Closest aviation weather report (METAR) to Belozem SSA Airstrip

Closest report is Plovdiv International Airport, 12.8 nm (23.7 km) SW.

2024/04/18 05:00 (retrieved 21 minutes ago)

LBPD 180500Z AUTO 29013KT 9999 SCT085/// 11/06 Q1002 NOSIG

Closest aviation forecast (TAF) to Belozem SSA Airstrip

Forecast is more than 12 hours old.

Closest forecast is Skopje International Airport, 153.9 nm (285.0 km) W.

2024/04/17 13:40 Ammendment (retrieved 16 hours ago)

TAF AMD LWSK 171225Z 1713/1812 01015KT 9999 FEW015 SCT040 BKN060 TEMPO 1713/1715 02022G32KT TEMPO 1713/1806 RA SCT020 OVC040 TEMPO 1714/1717 VRB15G25KT 5000 TSRA FEW035CB OVC040